| time (UTC) | temp C | wind direction | speed KPH | gust KPH | rain 1hr cm | rain 24hr cm | rain mn cm | humidity % | barometer mb |
| 20260906202003 | 30 | 170 | 6.4 | 17.7 | 0.00 | 0.00 | 0.00 | 58 | 1015.2 |
| 20260906201003 | 30 | 181 | 9.7 | 19.3 | 0.00 | 0.00 | 0.00 | 58 | 1015.3 |
| 20260906200502 | 30 | 175 | 8.0 | 19.3 | 0.00 | 0.00 | 0.00 | 56 | 1015.4 |
| 20260906200002 | 30 | 159 | 6.4 | 14.5 | 0.00 | 0.00 | 0.00 | 58 | 1015.5 |
| 20260906195003 | 30 | 152 | 8.0 | 20.9 | 0.00 | 0.00 | 0.00 | 59 | 1015.6 |
| 20260906194503 | 30 | 171 | 6.4 | 20.9 | 0.00 | 0.00 | 0.00 | 58 | 1015.6 |
| 20260906194003 | 30 | 182 | 6.4 | 14.5 | 0.00 | 0.00 | 0.00 | 61 | 1015.7 |
| 20260906193502 | 30 | 189 | 6.4 | 19.3 | 0.00 | 0.00 | 0.00 | 60 | 1015.8 |
| 20260906193003 | 30 | 186 | 6.4 | 19.3 | 0.00 | 0.00 | 0.00 | 59 | 1015.8 |
| 20260906192502 | 30 | 178 | 6.4 | 17.7 | 0.00 | 0.00 | 0.00 | 61 | 1015.9 |
| 20260906192003 | 30 | 205 | 6.4 | 19.3 | 0.00 | 0.00 | 0.00 | 61 | 1016.0 |
| 20260906191502 | 30 | 220 | 6.4 | 19.3 | 0.00 | 0.00 | 0.00 | 59 | 1016.0 |
| 20260906191003 | 30 | 214 | 6.4 | 17.7 | 0.00 | 0.00 | 0.00 | 60 | 1016.0 |
| 20260906190503 | 30 | 194 | 6.4 | 17.7 | 0.00 | 0.00 | 0.00 | 60 | 1016.1 |
| 20260906185503 | 29 | 173 | 6.4 | 16.1 | 0.00 | 0.00 | 0.00 | 61 | 1016.2 |
| 20260906184003 | 29 | 193 | 6.4 | 22.5 | 0.00 | 0.00 | 0.00 | 62 | 1016.4 |
| 20260906183002 | 28 | 195 | 9.7 | 24.1 | 0.00 | 0.00 | 0.00 | 63 | 1016.4 |
| 20260906181503 | 28 | 206 | 9.7 | 22.5 | 0.00 | 0.00 | 0.00 | 66 | 1016.6 |
| 20260906175002 | 27 | 197 | 9.7 | 19.3 | 0.00 | 0.00 | 0.00 | 69 | 1016.9 |
| 20260906174503 | 27 | 182 | 11.3 | 20.9 | 0.00 | 0.00 | 0.00 | 71 | 1017.1 |
| 20260906173502 | 27 | 207 | 9.7 | 19.3 | 0.00 | 0.00 | 0.00 | 71 | 1017.1 |
| 20260906173003 | 27 | 202 | 9.7 | 24.1 | 0.00 | 0.00 | 0.00 | 71 | 1017.1 |
| 20260906172502 | 27 | 207 | 9.7 | 24.1 | 0.00 | 0.00 | 0.00 | 71 | 1017.2 |
| 20260906171503 | 26 | 197 | 9.7 | 22.5 | 0.00 | 0.00 | 0.00 | 71 | 1017.4 |
| 20260906170003 | 26 | 210 | 8.0 | 20.9 | 0.00 | 0.00 | 0.00 | 73 | 1017.5 |
| 20260906165502 | 26 | 204 | 8.0 | 20.9 | 0.00 | 0.00 | 0.00 | 73 | 1017.6 |
| 20260906164503 | 26 | 194 | 8.0 | 22.5 | 0.00 | 0.00 | 0.00 | 72 | 1017.7 |
| 20260906163503 | 26 | 184 | 9.7 | 24.1 | 0.00 | 0.00 | 0.00 | 72 | 1017.5 |
| 20260906162502 | 25 | 210 | 9.7 | 25.7 | 0.00 | 0.00 | 0.00 | 77 | 1017.5 |
| 20260906162003 | 25 | 216 | 9.7 | 25.7 | 0.00 | 0.00 | 0.00 | 76 | 1017.6 |
| 20260906161503 | 25 | 209 | 8.0 | 17.7 | 0.00 | 0.00 | 0.00 | 78 | 1017.7 |
| 20260906160503 | 25 | 187 | 8.0 | 24.1 | 0.00 | 0.00 | 0.00 | 79 | 1017.6 |
| 20260906160003 | 24 | 187 | 8.0 | 19.3 | 0.00 | 0.00 | 0.00 | 80 | 1017.7 |
| 20260906155003 | 24 | 176 | 6.4 | 20.9 | 0.00 | 0.00 | 0.00 | 80 | 1017.6 |
| 20260906152003 | 23 | 161 | 8.0 | 19.3 | 0.00 | 0.00 | 0.00 | 83 | 1017.4 |
| 20260906151003 | 23 | 151 | 6.4 | 16.1 | 0.00 | 0.00 | 0.00 | 83 | 1017.5 |
| 20260906150503 | 23 | 144 | 8.0 | 14.5 | 0.00 | 0.00 | 0.00 | 82 | 1017.5 |
| 20260906145003 | 23 | 162 | 3.2 | 16.1 | 0.00 | 0.00 | 0.00 | 82 | 1017.6 |
| 20260906144503 | 23 | 160 | 1.6 | 8.0 | 0.00 | 0.00 | 0.00 | 82 | 1017.7 |
| 20260906143502 | 23 | 190 | 0.0 | 3.2 | 0.00 | 0.00 | 0.00 | 84 | 1017.6 |
| 20260906143003 | 22 | 147 | 1.6 | 4.8 | 0.00 | 0.00 | 0.00 | 84 | 1017.4 |
| 20260906142003 | 22 | 97 | 1.6 | 4.8 | 0.00 | 0.00 | 0.00 | 84 | 1017.2 |
| 20260906141503 | 23 | 99 | 0.0 | 4.8 | 0.00 | 0.00 | 0.00 | 84 | 1017.2 |
| 20260906140503 | 22 | 108 | 0.0 | 1.6 | 0.00 | 0.00 | 0.00 | 91 | 1017.3 |
| 20260906140003 | 21 | 91 | 1.6 | 4.8 | 0.00 | 0.00 | 0.00 | 91 | 1017.3 |
| 20260906135004 | 20 | 98 | 0.0 | 4.8 | 0.00 | 0.00 | 0.00 | 92 | 1017.1 |
| 20260906134503 | 20 | 100 | 0.0 | 4.8 | 0.00 | 0.00 | 0.00 | 92 | 1017.3 |
| 20260906134003 | 20 | 85 | 0.0 | 4.8 | 0.00 | 0.00 | 0.00 | 93 | 1017.1 |
| 20260906133503 | 20 | 90 | 1.6 | 4.8 | 0.00 | 0.00 | 0.00 | 93 | 1017.1 |
| 20260906133003 | 20 | 101 | 1.6 | 8.0 | 0.00 | 0.00 | 0.00 | 93 | 1017.0 |
| 20260906132503 | 20 | 96 | 1.6 | 8.0 | 0.00 | 0.00 | 0.00 | 94 | 1016.9 |
| 20260906131503 | 19 | 104 | 4.8 | 9.7 | 0.00 | 0.00 | 0.00 | 95 | 1016.8 |
| 20260906131003 | 19 | 91 | 4.8 | 9.7 | 0.00 | 0.00 | 0.00 | 96 | 1016.3 |
| 20260906130503 | 19 | 91 | 3.2 | 9.7 | 0.00 | 0.00 | 0.00 | 96 | 1016.3 |
| 20260906130003 | 19 | 87 | 1.6 | 6.4 | 0.00 | 0.00 | 0.00 | 96 | 1016.4 |
| 20260906124003 | 18 | 61 | 3.2 | 9.7 | 0.00 | 0.00 | 0.00 | 96 | 1016.4 |
| 20260906122502 | 18 | 67 | 4.8 | 9.7 | 0.00 | 0.00 | 0.00 | 96 | 1015.6 |
| 20260906121503 | 18 | 171 | 3.2 | 6.4 | 0.00 | 0.00 | 0.00 | 96 | 1016.1 |
| 20260906121004 | 18 | 71 | 4.8 | 12.9 | 0.00 | 0.00 | 0.00 | 96 | 1016.2 |
| 20260906120003 | 18 | 118 | 0.0 | 4.8 | 0.00 | 0.00 | 0.00 | 96 | 1016.4 |
| 20260906115503 | 18 | 126 | 0.0 | 3.2 | 0.00 | 0.00 | 0.00 | 96 | 1016.6 |
| 20260906115003 | 18 | 95 | 0.0 | 3.2 | 0.00 | 0.00 | 0.00 | 96 | 1016.3 |
| 20260906114503 | 18 | 95 | 1.6 | 4.8 | 0.00 | 0.00 | 0.00 | 96 | 1016.3 |
| 20260906113003 | 18 | 88 | 0.0 | 1.6 | 0.00 | 0.00 | 0.00 | 96 | 1016.4 |
| 20260906112504 | 18 | 92 | 0.0 | 4.8 | 0.00 | 0.00 | 0.00 | 96 | 1016.3 |
| 20260906112003 | 18 | 90 | 0.0 | 4.8 | 0.00 | 0.00 | 0.00 | 96 | 1016.3 |
| 20260906111503 | 18 | 76 | 0.0 | 3.2 | 0.00 | 0.00 | 0.00 | 96 | 1016.3 |
| 20260906111003 | 18 | 83 | 1.6 | 4.8 | 0.00 | 0.00 | 0.00 | 96 | 1016.2 |
| 20260906110004 | 18 | 89 | 0.0 | 4.8 | 0.00 | 0.00 | 0.00 | 96 | 1016.1 |
| 20260906105503 | 18 | 85 | 1.6 | 11.3 | 0.00 | 0.00 | 0.00 | 96 | 1016.1 |
| 20260906105003 | 18 | 81 | 3.2 | 11.3 | 0.00 | 0.00 | 0.00 | 96 | 1015.9 |
| 20260906104503 | 18 | 94 | 8.0 | 22.5 | 0.00 | 0.00 | 0.00 | 96 | 1015.9 |
| 20260906104003 | 18 | 98 | 9.7 | 22.5 | 0.00 | 0.00 | 0.00 | 96 | 1015.9 |
| 20260906103003 | 18 | 94 | 6.4 | 19.3 | 0.00 | 0.00 | 0.00 | 96 | 1016.0 |
| 20260906102503 | 18 | 90 | 8.0 | 19.3 | 0.00 | 0.00 | 0.00 | 96 | 1015.2 |
| 20260906101003 | 18 | 94 | 9.7 | 24.1 | 0.00 | 0.00 | 0.00 | 96 | 1015.2 |
| 20260906100503 | 18 | 96 | 12.9 | 24.1 | 0.00 | 0.00 | 0.00 | 96 | 1014.9 |
| 20260906100003 | 18 | 100 | 14.5 | 24.1 | 0.00 | 0.00 | 0.00 | 96 | 1014.5 |
| 20260906095504 | 18 | 101 | 14.5 | 32.2 | 0.00 | 0.00 | 0.00 | 96 | 1015.1 |
| 20260906094503 | 18 | 93 | 14.5 | 32.2 | 0.00 | 0.00 | 0.00 | 95 | 1015.4 |
| 20260906094004 | 18 | 91 | 17.7 | 32.2 | 0.00 | 0.00 | 0.00 | 95 | 1015.1 |
| 20260906093503 | 18 | 91 | 14.5 | 29.0 | 0.00 | 0.00 | 0.00 | 95 | 1015.2 |
| 20260906092503 | 18 | 98 | 11.3 | 19.3 | 0.00 | 0.00 | 0.00 | 93 | 1016.6 |
| 20260906092003 | 18 | 98 | 8.0 | 16.1 | 0.00 | 0.00 | 0.00 | 92 | 1017.8 |
| 20260906091504 | 18 | 78 | 8.0 | 14.5 | 0.00 | 0.00 | 0.00 | 91 | 1017.8 |
| 20260906091003 | 18 | 47 | 8.0 | 14.5 | 0.00 | 0.00 | 0.00 | 90 | 1017.8 |
| 20260906090503 | 18 | 4 | 9.7 | 19.3 | 0.00 | 0.00 | 0.00 | 89 | 1017.7 |
| 20260906090004 | 18 | 356 | 14.5 | 22.5 | 0.00 | 0.00 | 0.00 | 89 | 1017.9 |
| 20260906084503 | 19 | 294 | 17.7 | 27.4 | 0.00 | 0.00 | 0.00 | 86 | 1018.8 |
| 20260906082002 | 18 | 312 | 17.7 | 24.1 | 0.00 | 0.00 | 0.00 | 94 | 1017.8 |
| 20260906081502 | 17 | 312 | 20.9 | 33.8 | 0.00 | 0.00 | 0.00 | 96 | 1018.1 |
| 20260906065002 | 20 | 276 | 46.7 | 74.0 | 0.00 | 0.00 | 0.00 | 87 | 1018.0 |
| 20260906062502 | 25 | 153 | 0.0 | 3.2 | 0.00 | 0.00 | 0.00 | 80 | 1016.0 |
| 20260906040002 | 25 | 270 | 3.2 | 9.7 | 0.00 | 0.00 | 0.00 | 83 | 1016.2 |
| 20260906035003 | 26 | 248 | 1.6 | 3.2 | 0.00 | 0.00 | 0.00 | 81 | 1016.1 |
| 20260906034502 | 26 | 108 | 1.6 | 4.8 | 0.00 | 0.00 | 0.00 | 80 | 1016.0 |
| 20260906033502 | 26 | 110 | 3.2 | 4.8 | 0.00 | 0.00 | 0.00 | 79 | 1015.8 |
| 20260906033003 | 26 | 109 | 1.6 | 4.8 | 0.00 | 0.00 | 0.00 | 79 | 1015.6 |
| 20260906032002 | 26 | 91 | 4.8 | 8.0 | 0.00 | 0.00 | 0.00 | 79 | 1015.4 |
| 20260906031502 | 26 | 92 | 4.8 | 8.0 | 0.00 | 0.00 | 0.00 | 79 | 1015.3 |
| 20260906031002 | 26 | 90 | 3.2 | 6.4 | 0.00 | 0.00 | 0.00 | 78 | 1015.3 |
| 20260906030502 | 26 | 91 | 3.2 | 6.4 | 0.00 | 0.00 | 0.00 | 78 | 1015.2 |
| 20260906023503 | 27 | 113 | 4.8 | 9.7 | 0.00 | 0.00 | 0.00 | 76 | 1014.6 |
| 20260906023002 | 27 | 116 | 4.8 | 12.9 | 0.00 | 0.00 | 0.00 | 75 | 1014.4 |
| 20260906021503 | 27 | 102 | 9.7 | 19.3 | 0.00 | 0.00 | 0.00 | 74 | 1014.1 |
| 20260906021003 | 27 | 99 | 11.3 | 20.9 | 0.00 | 0.00 | 0.00 | 74 | 1014.1 |
| 20260906020002 | 27 | 101 | 11.3 | 24.1 | 0.00 | 0.00 | 0.00 | 73 | 1014.0 |
| 20260906015503 | 27 | 97 | 11.3 | 24.1 | 0.00 | 0.00 | 0.00 | 72 | 1014.2 |
| 20260906014502 | 27 | 96 | 9.7 | 19.3 | 0.00 | 0.00 | 0.00 | 71 | 1014.5 |
| 20260906014002 | 27 | 94 | 9.7 | 19.3 | 0.00 | 0.00 | 0.00 | 71 | 1014.6 |
| 20260906013002 | 27 | 96 | 8.0 | 14.5 | 0.00 | 0.00 | 0.00 | 70 | 1014.5 |
| 20260906012502 | 27 | 97 | 8.0 | 12.9 | 0.00 | 0.00 | 0.00 | 70 | 1014.5 |
| 20260906011502 | 27 | 94 | 8.0 | 16.1 | 0.00 | 0.00 | 0.00 | 69 | 1014.6 |
| 20260906004503 | 28 | 96 | 11.3 | 17.7 | 0.00 | 0.00 | 0.00 | 64 | 1014.9 |
| 20260906004002 | 28 | 95 | 11.3 | 19.3 | 0.00 | 0.00 | 0.00 | 64 | 1014.8 |
| 20260906002502 | 28 | 91 | 8.0 | 14.5 | 0.00 | 0.00 | 0.00 | 64 | 1014.8 |
| 20260906001503 | 28 | 94 | 9.7 | 19.3 | 0.00 | 0.00 | 0.00 | 63 | 1014.7 |
| 20260906000502 | 29 | 95 | 11.3 | 20.9 | 0.00 | 0.00 | 0.00 | 62 | 1014.3 |
| 20260905235003 | 30 | 94 | 11.3 | 22.5 | 0.00 | 0.00 | 0.00 | 60 | 1014.4 |
| 20260905234002 | 30 | 93 | 11.3 | 24.1 | 0.00 | 0.00 | 0.00 | 59 | 1014.2 |
| 20260905233503 | 30 | 92 | 9.7 | 20.9 | 0.00 | 0.00 | 0.00 | 58 | 1014.3 |
| 20260905232502 | 31 | 92 | 11.3 | 22.5 | 0.00 | 0.00 | 0.00 | 57 | 1014.2 |
| 20260905232003 | 31 | 92 | 11.3 | 22.5 | 0.00 | 0.00 | 0.00 | 56 | 1014.1 |
| 20260905231502 | 31 | 93 | 11.3 | 22.5 | 0.00 | 0.00 | 0.00 | 56 | 1014.0 |
| 20260905230502 | 31 | 93 | 12.9 | 25.7 | 0.00 | 0.00 | 0.00 | 57 | 1013.9 |
| 20260905230002 | 31 | 91 | 12.9 | 20.9 | 0.00 | 0.00 | 0.00 | 57 | 1013.7 |
| 20260905224502 | 31 | 93 | 12.9 | 27.4 | 0.00 | 0.00 | 0.00 | 57 | 1013.7 |
| 20260905223502 | 31 | 94 | 11.3 | 22.5 | 0.00 | 0.00 | 0.00 | 60 | 1013.7 |
| 20260905223002 | 31 | 95 | 14.5 | 29.0 | 0.00 | 0.00 | 0.00 | 60 | 1013.6 |
| 20260905222003 | 31 | 95 | 14.5 | 27.4 | 0.00 | 0.00 | 0.00 | 58 | 1013.4 |
| 20260905221502 | 31 | 94 | 14.5 | 25.7 | 0.00 | 0.00 | 0.00 | 57 | 1013.5 |
| 20260905221003 | 31 | 95 | 12.9 | 29.0 | 0.00 | 0.00 | 0.00 | 57 | 1013.4 |
| 20260905220003 | 31 | 94 | 16.1 | 29.0 | 0.00 | 0.00 | 0.00 | 56 | 1013.6 |
| 20260905215502 | 31 | 95 | 14.5 | 29.0 | 0.00 | 0.00 | 0.00 | 56 | 1013.7 |
| 20260905214003 | 31 | 93 | 14.5 | 30.6 | 0.00 | 0.00 | 0.00 | 55 | 1014.1 |
| 20260905213002 | 31 | 94 | 16.1 | 29.0 | 0.00 | 0.00 | 0.00 | 56 | 1014.2 |
| 20260905212503 | 31 | 95 | 14.5 | 27.4 | 0.00 | 0.00 | 0.00 | 56 | 1014.4 |
| 20260905212003 | 31 | 94 | 14.5 | 29.0 | 0.00 | 0.00 | 0.00 | 57 | 1014.4 |
| 20260905211502 | 31 | 93 | 16.1 | 29.0 | 0.00 | 0.00 | 0.00 | 58 | 1014.5 |
| 20260905211003 | 30 | 92 | 16.1 | 33.8 | 0.00 | 0.00 | 0.00 | 57 | 1014.6 |
| 20260905210502 | 30 | 94 | 16.1 | 33.8 | 0.00 | 0.00 | 0.00 | 58 | 1014.6 |
| 20260905205503 | 31 | 90 | 14.5 | 29.0 | 0.00 | 0.00 | 0.00 | 59 | 1014.6 |
| 20260905203503 | 30 | 95 | 19.3 | 35.4 | 0.00 | 0.00 | 0.00 | 59 | 1014.9 |
| 20260905203003 | 30 | 94 | 16.1 | 35.4 | 0.00 | 0.00 | 0.00 | 59 | 1014.9 |